createdAt,value
2022-09-10T03:03:03.262Z,3.15
2022-09-10T03:05:30.047Z,3.15
2022-09-10T03:07:57.251Z,2.30
2022-09-10T03:10:24.519Z,2.58
2022-09-10T03:12:51.340Z,2.30
2022-09-10T03:15:20.985Z,2.25
2022-09-10T03:17:47.659Z,1.88
2022-09-10T03:20:14.592Z,3.33
2022-09-10T03:22:41.347Z,2.42
2022-09-10T03:25:08.112Z,2.20
2022-09-10T03:27:35.145Z,1.92
2022-09-10T03:30:03.177Z,2.10
2022-09-10T03:32:32.127Z,2.25
2022-09-10T03:35:00.019Z,1.90
2022-09-10T03:37:26.844Z,2.25
2022-09-10T03:39:53.539Z,2.20
2022-09-10T03:42:20.314Z,2.42
2022-09-10T03:44:47.548Z,3.30
2022-09-10T03:47:14.293Z,2.10
2022-09-10T03:49:40.976Z,2.05
2022-09-10T03:52:07.883Z,2.17
2022-09-10T03:54:34.522Z,2.30
2022-09-10T03:57:03.132Z,2.33
2022-09-10T03:59:29.986Z,1.90
2022-09-10T04:01:57.290Z,2.83
2022-09-10T04:04:24.029Z,2.35
2022-09-10T04:06:53.154Z,3.00
2022-09-10T04:09:20.232Z,2.30
2022-09-10T04:11:47.988Z,2.22
2022-09-10T04:14:15.726Z,2.88
2022-09-10T04:16:42.425Z,2.25
2022-09-10T04:19:09.759Z,2.20
2022-09-10T04:21:36.496Z,2.90
2022-09-10T04:24:06.429Z,3.20
2022-09-10T04:26:33.054Z,3.03
2022-09-10T04:28:59.774Z,2.20
2022-09-10T04:31:27.478Z,3.17
2022-09-10T04:33:54.147Z,2.90
2022-09-10T04:36:23.602Z,2.70
2022-09-10T04:38:50.190Z,3.50
2022-09-10T04:41:18.229Z,2.28
2022-09-10T04:43:45.232Z,3.03
2022-09-10T04:46:12.105Z,4.05
2022-09-10T04:48:39.743Z,2.83
2022-09-10T04:51:16.007Z,3.42
2022-09-10T04:53:43.303Z,2.72
2022-09-10T04:56:10.499Z,2.90
2022-09-10T04:58:39.054Z,3.80
2022-09-10T05:01:06.747Z,3.10
2022-09-10T05:03:34.164Z,3.28
2022-09-10T05:06:03.712Z,3.30
2022-09-10T05:08:30.993Z,2.88
2022-09-10T05:11:00.491Z,3.47
2022-09-10T05:13:27.537Z,3.00
2022-09-10T05:15:59.056Z,3.63
2022-09-10T05:18:28.472Z,4.57
2022-09-10T05:20:55.180Z,3.75
2022-09-10T05:23:21.965Z,3.58
2022-09-10T05:25:48.848Z,4.50
2022-09-10T05:28:16.489Z,3.85
2022-09-10T05:30:49.508Z,3.50
2022-09-10T05:33:18.126Z,3.42
2022-09-10T05:35:44.692Z,3.50
2022-09-10T05:38:14.122Z,3.60
2022-09-10T05:40:42.943Z,4.00
2022-09-10T05:43:11.780Z,3.72
2022-09-10T05:45:38.716Z,4.28
2022-09-10T05:48:05.519Z,3.97
2022-09-10T05:50:32.171Z,4.55
2022-09-10T05:52:58.775Z,3.50
2022-09-10T05:55:25.397Z,5.22
2022-09-10T05:57:52.340Z,4.30
2022-09-10T06:00:21.533Z,3.28
2022-09-10T06:02:48.342Z,3.80
2022-09-10T06:05:15.303Z,3.90
2022-09-10T06:07:41.892Z,2.97
2022-09-10T06:10:08.971Z,3.10
2022-09-10T06:12:38.752Z,2.70
2022-09-10T06:15:07.224Z,3.15
2022-09-10T06:17:34.863Z,2.63
2022-09-10T06:20:01.517Z,2.85
2022-09-10T06:22:28.137Z,4.72
2022-09-10T06:24:55.546Z,3.33
2022-09-10T06:27:23.332Z,3.05
2022-09-10T06:29:49.961Z,2.78
2022-09-10T06:32:16.586Z,2.85
2022-09-10T06:34:43.263Z,4.55
2022-09-10T06:37:10.121Z,3.47
2022-09-10T06:39:36.847Z,3.35
2022-09-10T06:42:03.541Z,2.70
2022-09-10T06:44:30.141Z,3.25
2022-09-10T06:47:39.081Z,3.67
2022-09-10T06:49:43.378Z,2.72
2022-09-10T06:52:11.564Z,2.80
2022-09-10T06:54:38.136Z,2.80
2022-09-10T06:57:05.175Z,3.63
2022-09-10T06:59:31.747Z,3.05
2022-09-10T07:02:02.980Z,3.10
2022-09-10T07:04:33.692Z,3.53
2022-09-10T07:07:30.556Z,3.50
2022-09-10T07:21:58.414Z,4.97
2022-09-10T07:39:24.986Z,3.35
2022-09-10T07:42:09.166Z,4.43
2022-09-10T07:44:54.781Z,4.07
2022-09-10T07:47:38.470Z,3.85
2022-09-10T08:19:24.944Z,3.58
2022-09-10T08:23:13.360Z,2.00
2022-09-10T08:26:24.895Z,3.65
2022-09-10T08:29:09.063Z,2.80
2022-09-10T08:31:54.646Z,2.67
2022-09-10T08:34:30.155Z,2.13
2022-09-10T08:37:50.947Z,1.90
2022-09-10T08:40:37.298Z,2.47
2022-09-10T08:43:47.616Z,2.33
2022-09-10T08:46:56.643Z,1.88
2022-09-10T08:49:51.744Z,1.77
2022-09-10T08:52:59.583Z,1.70
2022-09-10T08:55:36.275Z,2.00
2022-09-10T08:58:23.535Z,1.75
2022-09-10T09:01:22.177Z,1.83
2022-09-10T09:04:21.172Z,1.50
2022-09-10T09:07:19.394Z,1.70
2022-09-10T09:09:59.388Z,1.40
2022-09-10T09:12:58.157Z,1.20
2022-09-10T09:16:13.422Z,1.70
2022-09-10T09:22:38.075Z,3.13
2022-09-10T09:26:25.550Z,1.42
2022-09-10T09:29:23.715Z,1.70
2022-09-10T09:32:25.409Z,1.48
2022-09-10T09:35:07.564Z,2.10
2022-09-10T09:38:03.273Z,1.88
2022-09-10T09:40:54.051Z,1.60
2022-09-10T09:43:37.440Z,1.55
2022-09-10T09:49:30.834Z,1.25
2022-09-10T09:52:54.479Z,1.20
2022-09-10T09:59:44.948Z,1.33
2022-09-10T10:06:07.878Z,2.25
2022-09-10T10:09:13.400Z,0.80
2022-09-10T10:16:20.025Z,1.23
2022-09-10T10:26:59.744Z,0.80
2022-09-10T10:30:12.312Z,0.80
2022-09-10T10:37:30.667Z,0.90
2022-09-10T10:41:01.066Z,0.70
2022-09-10T10:52:09.994Z,0.95
2022-09-10T10:55:49.452Z,1.05
2022-09-10T10:59:48.998Z,0.75
2022-09-10T11:06:18.716Z,1.30
2022-09-10T11:16:40.567Z,1.42
2022-09-10T11:31:22.623Z,1.25
2022-09-10T11:35:12.739Z,1.63
2022-09-10T11:38:56.475Z,0.90
2022-09-10T11:45:09.250Z,1.20
2022-09-10T11:49:01.853Z,0.77
2022-09-10T11:52:34.028Z,0.70
2022-09-10T11:59:04.424Z,0.90
2022-09-10T12:05:40.658Z,0.80
2022-09-10T12:08:41.417Z,1.05
2022-09-10T12:15:42.856Z,0.88
2022-09-10T12:23:19.149Z,1.00
2022-09-10T12:30:20.404Z,0.95
2022-09-10T12:59:16.612Z,1.50
2022-09-10T13:14:03.044Z,1.13
2022-09-10T13:27:03.137Z,1.08
2022-09-10T13:29:43.989Z,0.70
2022-09-10T13:32:20.724Z,0.80
2022-09-10T13:35:05.110Z,1.00
2022-09-10T13:38:04.262Z,1.00
2022-09-10T13:40:53.573Z,0.95
2022-09-10T13:43:39.875Z,0.75
2022-09-10T13:46:12.530Z,1.00
2022-09-10T13:48:46.494Z,0.95
2022-09-10T13:51:31.199Z,0.82
2022-09-10T13:54:07.495Z,1.88
2022-09-10T13:56:35.233Z,0.93
2022-09-10T13:59:04.087Z,3.15
2022-09-10T14:01:53.980Z,1.63
2022-09-10T14:04:26.978Z,0.93
2022-09-10T14:07:07.869Z,1.13
2022-09-10T14:09:34.991Z,1.23
2022-09-10T14:12:08.835Z,1.80
2022-09-10T14:14:41.340Z,0.90
2022-09-10T14:17:15.918Z,0.85
2022-09-10T14:19:49.396Z,1.45
2022-09-10T14:22:26.474Z,1.38
2022-09-10T14:25:01.882Z,1.42
2022-09-10T14:27:31.378Z,0.80
2022-09-10T14:30:18.446Z,1.73
2022-09-10T14:32:46.290Z,1.40
2022-09-10T14:35:39.469Z,1.50
2022-09-10T14:38:29.184Z,1.20
2022-09-10T14:41:05.454Z,1.10
2022-09-10T14:43:38.119Z,1.00
2022-09-10T14:46:10.192Z,1.10
2022-09-10T14:49:02.555Z,0.88
2022-09-10T14:51:29.454Z,0.80
2022-09-10T14:53:58.315Z,1.25
2022-09-10T14:56:42.398Z,2.00
2022-09-10T14:59:24.141Z,1.00
2022-09-10T15:04:23.659Z,0.98
2022-09-10T15:06:54.788Z,1.50
2022-09-10T15:09:21.935Z,2.47
2022-09-10T15:11:48.999Z,1.20
2022-09-10T15:14:16.863Z,1.20
2022-09-10T15:16:44.160Z,1.02
2022-09-10T15:19:11.766Z,1.00
2022-09-10T15:21:40.605Z,0.82
2022-09-10T15:24:12.597Z,0.82
2022-09-10T15:26:39.237Z,1.52
2022-09-10T15:29:06.059Z,0.95
2022-09-10T15:31:33.016Z,1.20
2022-09-10T15:33:59.976Z,0.98
2022-09-10T15:36:28.369Z,1.52
2022-09-10T15:38:55.903Z,1.60
2022-09-10T15:41:22.542Z,0.95
2022-09-10T15:43:49.144Z,0.88
2022-09-10T15:46:17.243Z,1.83
2022-09-10T15:48:45.169Z,0.90
2022-09-10T15:51:21.356Z,0.80
2022-09-10T15:53:49.336Z,0.73
2022-09-10T15:56:17.362Z,1.05
2022-09-10T15:58:55.217Z,1.05
2022-09-10T16:01:23.222Z,1.45
2022-09-10T16:03:56.416Z,1.05
2022-09-10T16:06:25.185Z,1.45
2022-09-10T16:08:56.679Z,1.30
2022-09-10T16:11:24.961Z,1.20
2022-09-10T16:13:52.411Z,0.98
2022-09-10T16:16:21.800Z,1.20
2022-09-10T16:18:51.400Z,1.02
2022-09-10T16:21:24.267Z,1.10
2022-09-10T16:23:52.779Z,1.05
2022-09-10T16:26:23.141Z,0.65
2022-09-10T16:28:58.536Z,1.48
2022-09-10T16:31:30.376Z,1.40
2022-09-10T16:33:59.522Z,0.75
2022-09-10T16:36:27.100Z,1.20
2022-09-10T16:38:56.115Z,1.02
2022-09-10T16:41:24.384Z,2.40
2022-09-10T16:43:51.769Z,1.10
2022-09-10T16:46:18.813Z,1.13
2022-09-10T16:48:46.670Z,1.70
2022-09-10T16:51:18.101Z,2.35
2022-09-10T16:53:46.928Z,1.30
2022-09-10T16:56:15.813Z,1.30
2022-09-10T16:58:46.988Z,1.13
2022-09-10T17:01:15.029Z,1.08
2022-09-10T17:03:44.175Z,1.23
2022-09-10T17:06:16.406Z,0.75
2022-09-10T17:08:45.254Z,1.30
2022-09-10T17:11:16.313Z,1.30
2022-09-10T17:13:43.455Z,1.30
2022-09-10T17:16:16.943Z,1.60
2022-09-10T17:18:44.959Z,1.23
2022-09-10T17:21:11.728Z,1.17
2022-09-10T17:23:38.413Z,1.08
2022-09-10T17:26:06.869Z,1.23
2022-09-10T17:28:33.615Z,1.73
2022-09-10T17:31:00.698Z,0.90
2022-09-10T17:33:28.216Z,1.50
2022-09-10T17:36:00.466Z,1.15
2022-09-10T17:38:29.517Z,1.17
2022-09-10T17:41:01.805Z,1.45
2022-09-10T17:43:31.622Z,1.10
2022-09-10T17:45:58.420Z,1.17
2022-09-10T17:48:28.119Z,2.33
2022-09-10T17:50:55.019Z,0.85
2022-09-10T17:53:21.692Z,1.40
2022-09-10T17:55:48.343Z,2.08
2022-09-10T17:58:16.144Z,0.98
2022-09-10T18:00:48.987Z,0.93
2022-09-10T18:03:17.739Z,1.25
2022-09-10T18:05:45.904Z,2.15
2022-09-10T18:08:13.302Z,1.17
2022-09-10T18:10:40.310Z,1.60
2022-09-10T18:13:08.562Z,0.80
2022-09-10T18:15:42.220Z,1.17
2022-09-10T18:18:10.013Z,1.70
2022-09-10T18:20:36.645Z,1.45
2022-09-10T18:23:03.472Z,2.17
2022-09-10T18:25:31.505Z,1.10
2022-09-10T18:28:01.465Z,1.98
2022-09-10T18:30:29.186Z,1.25
2022-09-10T18:32:55.793Z,1.25
2022-09-10T18:35:26.183Z,0.85
2022-09-10T18:37:52.823Z,1.42
2022-09-10T18:40:19.863Z,1.58
2022-09-10T18:42:47.856Z,1.17
2022-09-10T18:45:14.867Z,1.67
2022-09-10T18:47:44.868Z,1.77
2022-09-10T18:50:13.312Z,2.17
2022-09-10T18:52:40.257Z,1.38
2022-09-10T18:55:07.443Z,2.38
2022-09-10T18:57:34.081Z,1.60
2022-09-10T19:00:01.163Z,1.40
2022-09-10T19:02:27.921Z,1.95
2022-09-10T19:05:10.677Z,1.77
2022-09-10T19:07:38.468Z,1.70
2022-09-10T19:10:07.145Z,1.70
2022-09-10T19:12:33.951Z,1.30
2022-09-10T19:15:00.543Z,1.60
2022-09-10T19:17:27.155Z,2.10
2022-09-10T19:19:53.762Z,1.42
2022-09-10T19:22:20.445Z,1.95
2022-09-10T19:24:55.752Z,2.80
2022-09-10T19:27:23.516Z,1.98
2022-09-10T19:29:50.554Z,2.33
2022-09-10T19:32:19.711Z,2.97
2022-09-10T19:34:48.873Z,2.05
2022-09-10T19:37:15.483Z,2.85
2022-09-10T19:39:42.944Z,1.70
2022-09-10T19:42:09.932Z,2.65
2022-09-10T19:44:39.449Z,1.80
2022-09-10T19:47:06.071Z,1.83
2022-09-10T19:49:34.340Z,2.00
2022-09-10T19:52:01.440Z,1.85
2022-09-10T19:54:30.370Z,2.58
2022-09-10T19:56:56.977Z,2.33
2022-09-10T19:59:23.649Z,3.97
2022-09-10T20:01:50.322Z,3.15
2022-09-10T20:04:17.071Z,2.53
2022-09-10T20:06:45.963Z,2.50
2022-09-10T20:09:13.075Z,2.90
2022-09-10T20:11:39.786Z,4.20
2022-09-10T20:14:10.124Z,2.72
2022-09-10T20:16:42.884Z,2.60
2022-09-10T20:19:11.320Z,3.10
2022-09-10T20:21:38.633Z,3.47
2022-09-10T20:24:07.996Z,4.00
2022-09-10T20:26:41.261Z,4.75
2022-09-10T20:29:13.253Z,2.65
2022-09-10T20:34:12.282Z,2.03
2022-09-10T20:36:41.308Z,2.10
2022-09-10T20:39:08.517Z,2.40
2022-09-10T20:41:35.263Z,3.05
2022-09-10T20:44:02.987Z,3.40
2022-09-10T20:46:31.090Z,3.20
2022-09-10T20:49:04.452Z,2.22
2022-09-10T20:51:35.913Z,3.17
2022-09-10T20:54:05.888Z,2.50
2022-09-10T20:56:33.726Z,3.28
2022-09-10T20:59:02.046Z,2.70
2022-09-10T21:01:33.159Z,2.75
2022-09-10T21:04:01.554Z,2.17
2022-09-10T21:06:31.210Z,4.68
2022-09-10T21:08:59.616Z,2.90
2022-09-10T21:11:31.058Z,2.70
2022-09-10T21:14:02.356Z,2.70
2022-09-10T21:16:31.582Z,3.28
2022-09-10T21:19:04.544Z,6.35
2022-09-10T21:21:34.240Z,6.07
2022-09-10T21:24:04.025Z,4.38
2022-09-10T21:26:34.295Z,2.85
2022-09-10T21:29:04.339Z,3.53
2022-09-10T21:31:32.127Z,4.53
2022-09-10T21:34:03.126Z,2.45
2022-09-10T21:36:31.834Z,3.00
2022-09-10T21:39:00.991Z,2.47
2022-09-10T21:41:33.534Z,2.60
2022-09-10T21:44:03.056Z,4.72
2022-09-10T21:46:30.717Z,2.65
2022-09-10T21:48:57.404Z,3.05
2022-09-10T21:51:24.496Z,3.70
2022-09-10T21:53:56.300Z,2.45
2022-09-10T21:56:24.846Z,4.05
2022-09-10T21:58:51.501Z,4.22
2022-09-10T22:01:21.025Z,3.47
2022-09-10T22:03:48.683Z,2.33
2022-09-10T22:06:23.147Z,2.35
2022-09-10T22:08:52.368Z,2.40
2022-09-10T22:11:24.267Z,2.80
2022-09-10T22:13:53.138Z,2.25
2022-09-10T22:16:21.112Z,3.25
2022-09-10T22:18:48.567Z,3.53
2022-09-10T22:21:16.593Z,3.33
2022-09-10T22:23:44.456Z,3.08
2022-09-10T22:26:17.385Z,2.42
2022-09-10T22:28:44.655Z,3.20
2022-09-10T22:31:13.048Z,2.65
2022-09-10T22:33:41.619Z,2.88
2022-09-10T22:36:18.814Z,2.78
2022-09-10T22:38:56.307Z,2.28
2022-09-10T22:41:23.213Z,3.13
2022-09-10T22:43:50.398Z,3.25
2022-09-10T22:46:19.091Z,2.90
2022-09-10T22:48:46.648Z,2.30
2022-09-10T22:51:18.795Z,2.55
2022-09-10T22:53:46.652Z,2.22
2022-09-10T22:56:14.675Z,2.53
2022-09-10T22:58:41.410Z,3.97
2022-09-10T23:01:10.334Z,2.95
2022-09-10T23:03:38.636Z,2.97
2022-09-10T23:06:06.629Z,2.40
2022-09-10T23:08:35.097Z,2.83
2022-09-10T23:11:31.959Z,4.13
2022-09-10T23:14:04.612Z,3.55
2022-09-10T23:16:34.462Z,5.05
2022-09-10T23:19:04.088Z,3.72
2022-09-10T23:21:32.600Z,3.20
2022-09-10T23:24:05.249Z,3.15
2022-09-10T23:26:31.911Z,4.78
2022-09-10T23:29:00.420Z,3.40
2022-09-10T23:31:29.471Z,3.80
2022-09-10T23:34:01.956Z,3.97
2022-09-10T23:36:34.168Z,4.43
2022-09-10T23:39:03.248Z,4.00
2022-09-10T23:41:32.798Z,3.35
2022-09-10T23:43:59.449Z,5.13
2022-09-10T23:46:26.582Z,4.28
2022-09-10T23:48:53.170Z,4.30
2022-09-10T23:51:21.100Z,3.17
2022-09-10T23:53:48.806Z,4.15
2022-09-10T23:56:18.465Z,3.35
2022-09-10T23:58:45.649Z,3.90
